Time;durP1;ratioP1;P1;durP2;ratioP2;P2;SDS_P1;SDS_P2;PMS_P1;PMS_P2;Temp;Humidity;BMP_temperature;BMP_pressure;BME280_temperature;BME280_humidity;BME280_pressure;Samples;Min_cycle;Max_cycle;Signal;HPM_P1;HPM_P2
2022/08/14 00:02:27;;;;;;;23.95;9.13;;;;;;;19.46;100.00;98576.67;2285477;77;21016;-82
2022/08/14 00:05:29;;;;;;;23.60;9.48;;;;;;;19.44;100.00;98572.02;2237560;78;21527;-82
2022/08/14 00:08:30;;;;;;;22.60;9.53;;;;;;;19.47;100.00;98569.04;2276674;77;21035;-81
2022/08/14 00:11:31;;;;;;;25.05;9.33;;;;;;;19.58;100.00;98562.60;2282191;77;21428;-81
2022/08/14 00:14:33;;;;;;;24.72;9.45;;;;;;;19.41;100.00;98564.83;2284600;77;21024;-82
2022/08/14 00:17:34;;;;;;;24.43;10.00;;;;;;;19.54;100.00;98560.77;2285272;77;20981;-82
2022/08/14 00:20:36;;;;;;;24.00;9.20;;;;;;;19.47;100.00;98555.73;2284527;77;21056;-81
2022/08/14 00:23:38;;;;;;;23.83;10.40;;;;;;;19.57;100.00;98555.63;2281776;78;21036;-81
2022/08/14 00:26:39;;;;;;;24.47;9.55;;;;;;;19.62;100.00;98549.84;2282935;77;21052;-82
2022/08/14 00:29:40;;;;;;;23.02;9.05;;;;;;;19.61;100.00;98551.67;2240070;78;21096;-82
2022/08/14 00:32:42;;;;;;;22.13;9.38;;;;;;;19.53;100.00;98554.28;2280939;77;21566;-80
2022/08/14 00:35:43;;;;;;;21.80;8.75;;;;;;;19.62;100.00;98546.67;2282024;77;20957;-78
2022/08/14 00:38:45;;;;;;;22.48;8.85;;;;;;;19.70;100.00;98553.87;2270098;77;21029;-81
2022/08/14 00:41:46;;;;;;;24.45;9.43;;;;;;;19.82;100.00;98546.47;2266201;77;20980;-81
2022/08/14 00:44:48;;;;;;;23.85;9.08;;;;;;;19.61;100.00;98547.69;2285723;77;21048;-78
2022/08/14 00:47:49;;;;;;;26.45;9.98;;;;;;;19.50;100.00;98545.29;2283165;77;21012;-81
2022/08/14 00:50:53;;;;;;;21.73;9.05;;;;;;;19.41;100.00;98536.91;2282387;77;21075;-81
2022/08/14 00:53:54;;;;;;;21.30;8.93;;;;;;;19.54;100.00;98539.48;2262088;77;20996;-81
2022/08/14 00:56:55;;;;;;;21.90;9.30;;;;;;;19.53;100.00;98533.00;2287707;77;20953;-81
2022/08/14 00:59:57;;;;;;;23.40;8.80;;;;;;;19.46;100.00;98543.42;2237759;79;20988;-81
2022/08/14 01:02:59;;;;;;;21.82;8.88;;;;;;;19.39;100.00;98541.91;2240803;79;21005;-82
2022/08/14 01:06:00;;;;;;;21.42;8.60;;;;;;;19.28;100.00;98543.97;2243695;79;21000;-81
2022/08/14 01:09:02;;;;;;;21.12;9.05;;;;;;;19.33;100.00;98535.87;2243065;79;21598;-81
2022/08/14 01:12:03;;;;;;;22.32;9.00;;;;;;;19.18;100.00;98542.27;2233678;79;20961;-81
2022/08/14 01:15:05;;;;;;;23.85;8.80;;;;;;;19.15;100.00;98536.41;2237538;79;21537;-78
2022/08/14 01:21:14;;;;;;;22.75;8.83;;;;;;;19.21;100.00;98544.61;2200317;79;21056;-82
2022/08/14 01:24:14;;;;;;;23.90;9.20;;;;;;;19.11;100.00;98537.73;2215231;79;21134;-81
2022/08/14 01:27:17;;;;;;;23.15;8.85;;;;;;;19.14;100.00;98532.10;2233054;79;21001;-81
2022/08/14 01:30:21;;;;;;;23.20;8.68;;;;;;;19.10;100.00;98535.55;2240369;79;21000;-76
2022/08/14 01:33:22;;;;;;;22.90;9.30;;;;;;;19.00;100.00;98528.17;2249422;77;20977;-81
2022/08/14 01:36:24;;;;;;;;;;;;;;;19.04;100.00;98529.03;2285366;78;21488;-81
2022/08/14 01:39:26;;;;;;;25.07;10.23;;;;;;;19.02;100.00;98525.70;2289381;77;20092;-80
2022/08/14 01:42:28;;;;;;;24.85;9.90;;;;;;;19.05;100.00;98520.58;2268193;77;20981;-75
2022/08/14 01:45:30;;;;;;;26.30;10.08;;;;;;;19.02;100.00;98521.72;2236798;78;21036;-82
2022/08/14 01:48:32;;;;;;;23.65;10.10;;;;;;;19.03;100.00;98518.05;2283431;77;21471;-81
2022/08/14 01:51:33;;;;;;;24.35;10.60;;;;;;;19.06;100.00;98522.23;2285617;77;20981;-74
2022/08/14 01:54:35;;;;;;;24.85;11.53;;;;;;;19.10;100.00;98522.27;2285603;77;21413;-79
2022/08/14 01:57:36;;;;;;;27.30;10.90;;;;;;;19.11;100.00;98519.12;2285682;77;21012;-79
2022/08/14 02:00:38;;;;;;;25.50;10.63;;;;;;;19.06;100.00;98521.41;2283607;77;21508;-81
2022/08/14 02:03:40;;;;;;;26.85;10.60;;;;;;;19.08;100.00;98519.41;2282476;77;20969;-81
2022/08/14 02:06:41;;;;;;;27.90;10.75;;;;;;;18.97;100.00;98516.53;2285987;77;21547;-78
2022/08/14 02:09:43;;;;;;;26.10;10.63;;;;;;;19.10;100.00;98519.60;2285884;77;21059;-80
2022/08/14 02:12:45;;;;;;;26.57;10.82;;;;;;;19.03;100.00;98514.06;2277941;77;21561;-81
2022/08/14 02:15:46;;;;;;;23.77;11.08;;;;;;;19.15;100.00;98508.02;2274560;77;20984;-79
2022/08/14 02:18:48;;;;;;;24.63;10.82;;;;;;;19.16;100.00;98508.34;2278864;77;21575;-82
2022/08/14 02:21:49;;;;;;;25.12;11.70;;;;;;;19.12;100.00;98508.34;2285858;77;21044;-81
2022/08/14 02:24:50;;;;;;;28.05;12.07;;;;;;;19.12;100.00;98504.35;2283034;77;20997;-76
2022/08/14 02:27:55;;;;;;;25.05;12.28;;;;;;;18.98;100.00;98503.08;2285029;77;20977;-79
2022/08/14 02:30:55;;;;;;;28.32;12.25;;;;;;;18.96;100.00;98501.06;2261778;77;21083;-81
2022/08/14 02:33:57;;;;;;;30.02;12.33;;;;;;;18.93;100.00;98497.89;2284325;77;21024;-81
2022/08/14 02:36:59;;;;;;;29.30;13.05;;;;;;;18.84;100.00;98496.46;2286491;77;21000;-79
2022/08/14 02:40:01;;;;;;;26.10;12.37;;;;;;;18.88;100.00;98498.36;2283750;77;21063;-81
2022/08/14 02:43:02;;;;;;;;;;;;;;;18.87;100.00;98497.51;2286158;77;21051;-81
2022/08/14 02:46:04;;;;;;;32.75;13.95;;;;;;;18.86;100.00;98501.17;2283196;77;20395;-81
2022/08/14 02:49:06;;;;;;;29.20;13.62;;;;;;;18.88;100.00;98499.69;2282860;77;21019;-81
2022/08/14 02:52:07;;;;;;;28.07;12.85;;;;;;;18.89;100.00;98497.86;2284861;77;20965;-79
2022/08/14 02:55:08;;;;;;;31.80;14.60;;;;;;;18.86;100.00;98493.65;2275960;77;20949;-81
2022/08/14 02:58:10;;;;;;;29.85;14.28;;;;;;;18.90;100.00;98495.05;2277313;77;20992;-82
2022/08/14 03:01:11;;;;;;;31.02;14.05;;;;;;;18.98;100.00;98494.28;2281529;78;21463;-82
2022/08/14 03:04:13;;;;;;;27.40;13.13;;;;;;;18.98;100.00;98497.77;2285056;77;20981;-81
2022/08/14 03:07:15;;;;;;;30.80;13.88;;;;;;;19.07;100.00;98500.49;2283393;77;21012;-81
2022/08/14 03:10:17;;;;;;;33.78;14.63;;;;;;;19.08;100.00;98498.15;2282567;77;20958;-82
2022/08/14 03:13:18;;;;;;;34.08;14.07;;;;;;;19.10;100.00;98500.17;2281470;78;21456;-81
2022/08/14 03:16:20;;;;;;;30.32;14.47;;;;;;;18.96;100.00;98490.94;2285639;77;21031;-75
2022/08/14 03:19:22;;;;;;;28.42;14.07;;;;;;;18.96;100.00;98487.77;2282924;77;21511;-70
2022/08/14 03:22:23;;;;;;;28.83;13.70;;;;;;;18.97;100.00;98488.62;2239522;79;20981;-81
2022/08/14 03:25:24;;;;;;;30.82;14.28;;;;;;;19.04;100.00;98483.03;2243087;78;21079;-80
2022/08/14 03:28:28;;;;;;;29.85;13.95;;;;;;;19.07;100.00;98480.56;2242951;79;20997;-80
2022/08/14 03:31:29;;;;;;;30.57;14.53;;;;;;;19.02;100.00;98482.33;2246157;78;21047;-78
2022/08/14 03:34:31;;;;;;;31.80;15.28;;;;;;;18.94;100.00;98476.47;2242473;79;21068;-80
2022/08/14 03:37:32;;;;;;;30.65;15.60;;;;;;;18.92;100.00;98477.14;2239178;78;21421;-69
2022/08/14 03:40:34;;;;;;;35.28;15.88;;;;;;;18.91;100.00;98479.95;2284177;77;21016;-71
2022/08/14 03:43:35;;;;;;;30.72;14.85;;;;;;;18.90;100.00;98468.47;2278603;77;21538;-80
2022/08/14 03:46:37;;;;;;;29.55;14.18;;;;;;;18.92;100.00;98473.62;2284014;77;21024;-81
2022/08/14 03:49:39;;;;;;;26.45;12.68;;;;;;;19.03;100.00;98476.03;2285783;77;20993;-81
2022/08/14 03:52:43;;;;;;;26.20;11.80;;;;;;;19.08;100.00;98483.06;2282918;77;20969;-75
2022/08/14 03:55:44;;;;;;;23.10;10.65;;;;;;;19.11;100.00;98476.59;2284490;77;21071;-74
2022/08/14 03:58:46;;;;;;;24.45;11.15;;;;;;;19.18;100.00;98476.31;2280403;77;21527;-77
2022/08/14 04:01:48;;;;;;;24.65;11.03;;;;;;;19.25;100.00;98473.36;2284039;77;21015;-81
2022/08/14 04:04:50;;;;;;;23.90;10.18;;;;;;;19.32;100.00;98473.55;2286226;77;21547;-81
2022/08/14 04:07:51;;;;;;;23.60;11.08;;;;;;;19.41;100.00;98472.61;2286335;77;20997;-81
2022/08/14 04:10:53;;;;;;;24.05;11.05;;;;;;;19.53;100.00;98473.98;2283978;77;21444;-81
2022/08/14 04:13:55;;;;;;;28.67;11.20;;;;;;;19.56;100.00;98478.16;2281430;77;20997;-78
2022/08/14 04:16:56;;;;;;;24.10;11.18;;;;;;;19.56;100.00;98478.16;2287840;77;21479;-82
2022/08/14 04:20:02;;;;;;;23.95;10.48;;;;;;;19.52;100.00;98475.47;2282719;77;20980;-81
2022/08/14 04:23:02;;;;;;;25.48;10.82;;;;;;;19.63;100.00;98477.03;2260455;77;21071;-81
2022/08/14 04:26:04;;;;;;;28.32;11.35;;;;;;;19.71;100.00;98485.02;2280293;77;21020;-81
2022/08/14 04:29:06;;;;;;;23.40;10.93;;;;;;;19.69;100.00;98476.37;2282306;77;20965;-68
2022/08/14 04:32:07;;;;;;;22.55;10.50;;;;;;;19.70;100.00;98478.05;2287075;77;20981;-81
2022/08/14 04:35:09;;;;;;;25.37;11.53;;;;;;;19.74;100.00;98482.88;2284285;77;21067;-81
2022/08/14 04:44:17;;;;;;;24.77;11.25;;;;;;;19.73;100.00;98475.89;2254766;77;21029;-81
2022/08/14 04:50:22;;;;;;;24.82;12.18;;;;;;;20.08;100.00;98474.05;2257251;77;21491;-81
2022/08/14 04:53:24;;;;;;;27.55;12.65;;;;;;;20.08;100.00;98474.05;2285827;77;20980;-81
2022/08/14 04:56:25;;;;;;;25.65;11.73;;;;;;;20.11;100.00;98471.53;2283254;77;20981;-80
2022/08/14 04:59:27;;;;;;;23.60;11.80;;;;;;;20.20;100.00;98473.70;2241760;79;21016;-80
2022/08/14 05:02:28;;;;;;;30.05;11.97;;;;;;;20.13;100.00;98470.03;2241391;79;21003;-80
2022/08/14 05:05:29;;;;;;;24.75;11.18;;;;;;;20.08;100.00;98469.20;2243470;79;20985;-81
2022/08/14 05:08:31;;;;;;;25.95;11.48;;;;;;;20.31;100.00;98469.41;2234574;79;21041;-81
2022/08/14 05:11:34;;;;;;;23.32;11.33;;;;;;;20.33;100.00;98473.23;2211682;78;21432;-67
2022/08/14 05:14:36;;;;;;;23.35;11.83;;;;;;;20.42;100.00;98466.42;2283929;77;20997;-71
2022/08/14 05:17:37;;;;;;;26.05;11.03;;;;;;;20.31;100.00;98465.91;2284486;77;20980;-64
2022/08/14 05:20:39;;;;;;;25.48;11.33;;;;;;;20.26;100.00;98461.09;2284282;77;21553;-82
2022/08/14 05:23:41;;;;;;;;;;;;;;;20.08;100.00;98462.55;2285675;77;21071;-82
2022/08/14 05:26:44;;;;;;;24.70;10.95;;;;;;;20.03;100.00;98464.38;2284758;77;20144;-81
2022/08/14 05:29:46;;;;;;;23.10;10.85;;;;;;;20.01;100.00;98470.84;2284296;77;21521;-81
2022/08/14 05:32:47;;;;;;;;;;;;;;;20.00;100.00;98471.87;2278905;77;21019;-79
2022/08/14 05:35:49;;;;;;;23.32;10.55;;;;;;;19.97;100.00;98462.37;2282851;77;20135;-80
2022/08/14 05:38:51;;;;;;;;;;;;;;;20.06;100.00;98463.22;2289192;77;21008;-80
2022/08/14 05:41:53;;;;;;;25.70;10.68;;;;;;;20.02;100.00;98457.88;2282947;77;20127;-82
2022/08/14 05:44:56;;;;;;;26.45;11.05;;;;;;;20.08;100.00;98449.23;2282615;77;20998;-81
2022/08/14 05:47:57;;;;;;;23.27;11.08;;;;;;;20.12;100.00;98461.73;2285142;77;20957;-82
2022/08/14 05:50:59;;;;;;;24.75;10.68;;;;;;;20.23;100.00;98458.77;2270614;77;20952;-79
2022/08/14 05:54:00;;;;;;;23.92;11.10;;;;;;;20.19;100.00;98460.91;2280682;77;21545;-72
2022/08/14 05:57:02;;;;;;;25.35;10.95;;;;;;;20.13;100.00;98454.91;2286140;77;20959;-81
2022/08/14 06:00:03;;;;;;;26.25;11.18;;;;;;;20.20;100.00;98468.38;2282793;77;21586;-81
2022/08/14 06:03:05;;;;;;;22.93;10.28;;;;;;;20.18;100.00;98467.73;2284411;77;20984;-78
2022/08/14 06:06:06;;;;;;;23.20;10.80;;;;;;;20.17;100.00;98460.25;2282556;77;20980;-81
2022/08/14 06:09:09;;;;;;;25.35;11.15;;;;;;;20.21;100.00;98464.73;2285065;77;21083;-81
2022/08/14 06:12:10;;;;;;;23.05;10.58;;;;;;;20.21;100.00;98464.73;2279099;77;21554;-81
2022/08/14 06:15:12;;;;;;;24.50;10.63;;;;;;;20.23;100.00;98470.75;2285304;77;21033;-79
2022/08/14 06:18:13;;;;;;;25.23;11.18;;;;;;;20.33;100.00;98470.56;2283575;77;21051;-79
2022/08/14 06:21:15;;;;;;;26.65;10.90;;;;;;;20.50;100.00;98465.61;2282077;77;21567;-73
2022/08/14 06:24:17;;;;;;;22.80;9.78;;;;;;;20.56;100.00;98472.11;2286993;77;21043;-78
2022/08/14 06:27:19;;;;;;;22.00;9.10;;;;;;;20.53;100.00;98475.08;2286647;77;21539;-81
2022/08/14 06:30:21;;;;;;;22.00;9.78;;;;;;;20.70;100.00;98473.28;2284239;77;21012;-80
2022/08/14 06:33:23;;;;;;;21.57;9.25;;;;;;;20.74;100.00;98469.29;2285431;77;21499;-81
2022/08/14 06:36:24;;;;;;;;;;;;;;;20.81;100.00;98470.80;2284716;77;20992;-82
2022/08/14 06:39:26;;;;;;;22.45;9.33;;;;;;;20.97;100.00;98475.27;2283127;77;20116;-82
2022/08/14 06:42:27;;;;;;;23.07;9.75;;;;;;;21.00;100.00;98474.93;2283984;77;20993;-82
2022/08/14 06:45:29;;;;;;;22.40;10.40;;;;;;;20.96;100.00;98470.94;2286220;77;21507;-80
2022/08/14 06:48:31;;;;;;;22.98;10.00;;;;;;;20.96;100.00;98471.78;2280521;77;21005;-81
2022/08/14 06:51:34;;;;;;;22.75;9.55;;;;;;;21.07;100.00;98474.58;2284884;77;21483;-81
2022/08/14 06:54:36;;;;;;;22.73;9.68;;;;;;;21.21;100.00;98472.55;2287746;77;21028;-82
2022/08/14 06:57:37;;;;;;;22.00;10.03;;;;;;;;;;2284094;77;21554;-81
2022/08/14 07:00:39;;;;;;;22.35;9.13;;;;;;;21.52;100.00;98460.31;2282700;77;21483;-81
2022/08/14 07:06:44;;;;;;;24.12;10.40;;;;;;;21.86;100.00;98453.83;2216524;78;20965;-81
2022/08/14 07:09:45;;;;;;;23.77;10.00;;;;;;;21.96;100.00;98457.11;2227794;78;20997;-82
2022/08/14 07:12:47;;;;;;;22.45;9.10;;;;;;;22.07;100.00;98459.90;2285255;77;21019;-81
2022/08/14 07:15:49;;;;;;;;;;;;;;;22.15;100.00;98463.34;2287012;77;20981;-82
2022/08/14 07:18:51;;;;;;;;;;;;;;;22.27;100.00;98458.94;2286565;77;20080;-82
2022/08/14 07:21:53;;;;;;;22.05;10.00;;;;;;;22.25;100.00;98464.42;2279627;77;20397;-81
2022/08/14 07:24:54;;;;;;;21.87;9.38;;;;;;;22.53;100.00;98466.61;2285770;77;21016;-81
2022/08/14 07:27:56;;;;;;;;;;;;;;;22.63;100.00;98451.67;2288090;77;21496;-73
2022/08/14 07:30:58;;;;;;;24.13;10.27;;;;;;;22.86;100.00;98455.64;2278152;77;20116;-81
2022/08/14 07:33:59;;;;;;;22.13;9.65;;;;;;;23.04;100.00;98452.61;2285866;77;21055;-81
2022/08/14 07:37:00;;;;;;;21.45;9.43;;;;;;;23.37;100.00;98443.44;2238018;79;20953;-81
2022/08/14 07:40:02;;;;;;;21.50;9.18;;;;;;;23.72;100.00;98447.19;2238957;79;21004;-81
2022/08/14 07:43:04;;;;;;;22.87;9.68;;;;;;;23.69;100.00;98446.20;2241138;79;21075;-81
2022/08/14 07:46:05;;;;;;;;;;;;;;;23.87;100.00;98446.66;2246375;79;21111;-82
2022/08/14 07:49:07;;;;;;;21.20;9.48;;;;;;;24.18;100.00;98452.27;2240638;79;20995;-79
2022/08/14 07:52:09;;;;;;;21.50;9.28;;;;;;;24.38;100.00;98451.13;2233990;79;21470;-81
2022/08/14 07:55:11;;;;;;;21.82;9.60;;;;;;;24.21;100.00;98451.88;2242482;79;21000;-83
2022/08/14 07:58:12;;;;;;;21.75;9.48;;;;;;;24.39;100.00;98455.95;2242141;79;21614;-82
2022/08/14 08:01:14;;;;;;;21.30;9.48;;;;;;;24.52;100.00;98454.77;2243945;79;20968;-82
2022/08/14 08:04:15;;;;;;;22.62;10.13;;;;;;;24.86;100.00;98455.06;2245850;79;20993;-79
2022/08/14 08:07:17;;;;;;;22.37;10.35;;;;;;;25.01;100.00;98455.80;2238768;78;20976;-82
2022/08/14 08:13:22;;;;;;;22.77;10.00;;;;;;;24.51;100.00;98449.56;2242387;77;20351;-81
2022/08/14 08:16:23;;;;;;;24.40;10.20;;;;;;;24.33;100.00;98440.66;2280929;77;20949;-81
2022/08/14 08:19:24;;;;;;;22.45;10.18;;;;;;;24.44;100.00;98442.83;2279019;77;20989;-81
2022/08/14 08:22:26;;;;;;;;;;;;;;;24.74;100.00;98446.73;2283356;77;20953;-78
2022/08/14 08:25:28;;;;;;;20.90;9.45;;;;;;;24.62;100.00;98445.58;2287308;77;20383;-82
2022/08/14 08:28:30;;;;;;;22.40;10.38;;;;;;;24.25;100.00;98444.80;2246720;78;21047;-67
2022/08/14 08:31:31;;;;;;;23.38;11.00;;;;;;;24.02;100.00;98447.98;2217916;78;21091;-59
2022/08/14 08:34:34;;;;;;;23.38;10.10;;;;;;;23.94;100.00;98445.41;2284381;77;20984;-68
2022/08/14 08:37:35;;;;;;;21.97;10.18;;;;;;;23.93;100.00;98444.26;2241591;79;21005;-80
2022/08/14 08:40:37;;;;;;;22.27;10.00;;;;;;;24.10;100.00;98445.67;2237908;79;21023;-82
2022/08/14 08:43:38;;;;;;;23.47;10.15;;;;;;;24.56;100.00;98438.59;2237946;78;20999;-79
2022/08/14 08:46:41;;;;;;;22.27;9.90;;;;;;;24.80;100.00;98441.09;2282555;77;20987;-81
2022/08/14 08:49:43;;;;;;;22.17;9.63;;;;;;;24.93;100.00;98440.37;2284940;77;21052;-78
2022/08/14 08:52:45;;;;;;;23.60;9.45;;;;;;;25.25;100.00;98439.72;2282972;77;21102;-81
2022/08/14 08:55:46;;;;;;;23.35;10.25;;;;;;;25.35;100.00;98434.56;2272356;77;21471;-81
2022/08/14 08:58:48;;;;;;;23.10;10.05;;;;;;;25.22;100.00;98435.28;2283969;77;21036;-82
2022/08/14 09:01:50;;;;;;;22.32;10.00;;;;;;;25.12;100.00;98439.66;2282663;77;20992;-80
2022/08/14 09:04:52;;;;;;;21.93;9.68;;;;;;;24.99;100.00;98440.39;2246213;78;20992;-82
2022/08/14 09:07:53;;;;;;;24.85;9.75;;;;;;;24.97;100.00;98432.22;2236342;79;21625;-83
2022/08/14 09:10:55;;;;;;;23.30;10.25;;;;;;;24.84;100.00;98431.12;2230944;79;21012;-82
2022/08/14 09:13:58;;;;;;;25.25;10.58;;;;;;;24.68;100.00;98428.70;2247128;78;20994;-82
2022/08/14 09:16:59;;;;;;;24.35;10.45;;;;;;;24.46;100.00;98431.39;2281202;77;21027;-81
2022/08/14 09:20:01;;;;;;;23.15;10.03;;;;;;;24.45;100.00;98427.56;2286952;77;21479;-82
2022/08/14 09:23:03;;;;;;;25.35;10.32;;;;;;;24.83;100.00;98432.13;2284327;77;21479;-82
2022/08/14 09:26:05;;;;;;;23.12;10.23;;;;;;;25.12;100.00;98434.28;2283174;77;20988;-79
2022/08/14 09:29:08;;;;;;;23.57;10.08;;;;;;;25.17;100.00;98433.20;2285375;77;20980;-81
2022/08/14 09:32:10;;;;;;;23.80;10.25;;;;;;;25.01;100.00;98428.97;2248444;78;20997;-82
2022/08/14 09:35:12;;;;;;;23.83;10.90;;;;;;;24.87;100.00;98430.72;2283877;77;21028;-81
2022/08/14 09:38:13;;;;;;;22.00;10.00;;;;;;;24.80;100.00;98428.51;2285711;77;20992;-80
2022/08/14 09:41:15;;;;;;;23.73;9.98;;;;;;;25.04;100.00;98428.58;2286944;77;21020;-81
2022/08/14 09:44:17;;;;;;;22.95;10.23;;;;;;;25.31;100.00;98435.45;2285974;77;21359;-76
2022/08/14 09:47:20;;;;;;;24.02;10.28;;;;;;;25.45;100.00;98431.52;2284953;77;21017;-64
2022/08/14 09:50:21;;;;;;;23.20;10.75;;;;;;;25.51;100.00;98427.50;2244312;78;20993;-80
2022/08/14 09:53:23;;;;;;;23.10;10.00;;;;;;;25.32;100.00;98438.46;2237212;79;21568;-82
2022/08/14 09:56:24;;;;;;;;;;;;;;;25.23;100.00;98430.23;2245737;78;20996;-81
2022/08/14 09:59:28;;;;;;;24.12;10.20;;;;;;;25.03;100.00;98427.43;2243614;78;20409;-82
2022/08/14 10:02:30;;;;;;;22.52;10.72;;;;;;;24.90;100.00;98428.17;2274213;78;21514;-82
2022/08/14 10:05:32;;;;;;;24.60;11.12;;;;;;;24.95;100.00;98424.89;2277759;78;21060;-83
2022/08/14 10:08:33;;;;;;;21.77;10.20;;;;;;;24.92;100.00;98419.92;2229415;79;21113;-78
2022/08/14 10:11:36;;;;;;;22.25;10.82;;;;;;;24.88;100.00;98424.34;2286574;77;20977;-77
2022/08/14 10:14:40;;;;;;;22.50;11.12;;;;;;;24.93;100.00;98421.06;2245972;78;21092;-82
2022/08/14 10:17:41;;;;;;;23.77;10.72;;;;;;;24.69;100.00;98426.35;2227458;79;20974;-79
2022/08/14 10:20:43;;;;;;;25.05;11.10;;;;;;;24.50;100.00;98423.28;2251168;78;21036;-82
2022/08/14 10:23:48;;;;;;;23.20;10.25;;;;;;;24.39;100.00;98426.48;2249226;78;21061;-75
2022/08/14 10:26:50;;;;;;;22.13;10.20;;;;;;;24.61;100.00;98421.13;2186696;79;20996;-82
2022/08/14 10:29:51;;;;;;;22.75;10.20;;;;;;;25.00;100.00;98419.78;2233824;79;21024;-81
2022/08/14 10:32:53;;;;;;;27.13;11.20;;;;;;;25.27;100.00;98419.92;2249003;79;20994;-78
2022/08/14 10:35:55;;;;;;;23.65;10.80;;;;;;;25.41;100.00;98418.98;2281121;77;21006;-82
2022/08/14 10:38:57;;;;;;;23.47;11.03;;;;;;;25.44;100.00;98421.27;2241962;79;20983;-80
2022/08/14 10:41:58;;;;;;;24.52;10.58;;;;;;;25.30;100.00;98420.37;2285220;77;21012;-82
2022/08/14 10:45:00;;;;;;;25.27;10.80;;;;;;;25.02;100.00;98426.58;2286634;77;21008;-82
2022/08/14 10:48:01;;;;;;;22.60;10.38;;;;;;;24.84;100.00;98423.56;2283718;77;21023;-82
2022/08/14 10:51:03;;;;;;;22.82;10.80;;;;;;;24.85;100.00;98427.91;2282497;77;21036;-81
2022/08/14 10:54:04;;;;;;;23.47;11.00;;;;;;;24.89;100.00;98434.55;2281947;77;21662;-83
2022/08/14 10:57:06;;;;;;;26.30;11.08;;;;;;;24.89;100.00;98431.34;2284847;77;21050;-82
2022/08/14 11:00:07;;;;;;;25.72;10.82;;;;;;;24.88;100.00;98431.05;2284370;77;21064;-83
2022/08/14 11:03:12;;;;;;;23.02;10.15;;;;;;;24.95;100.00;98435.62;2284024;77;21593;-83
2022/08/14 11:06:15;;;;;;;26.17;11.22;;;;;;;24.94;100.00;98433.47;2259061;78;20993;-82
2022/08/14 11:09:15;;;;;;;23.07;10.38;;;;;;;24.80;100.00;98431.71;2257352;77;21040;-83
2022/08/14 11:12:17;;;;;;;23.27;10.80;;;;;;;24.87;100.00;98441.98;2286198;77;20988;-79
2022/08/14 11:15:18;;;;;;;;;;;;;;;24.95;100.00;98439.64;2245796;78;21052;-82
2022/08/14 11:18:20;;;;;;;23.10;10.77;;;;;;;25.07;100.00;98428.70;2243658;79;20220;-82
2022/08/14 11:21:23;;;;;;;24.02;11.22;;;;;;;25.07;100.00;98428.70;2227485;78;21919;-83
2022/08/14 11:24:27;;;;;;;23.77;11.73;;;;;;;25.12;100.00;98440.99;2282752;77;21531;-82
2022/08/14 11:27:29;;;;;;;23.95;11.88;;;;;;;24.92;100.00;98438.70;2266970;77;21842;-83
2022/08/14 11:30:31;;;;;;;24.07;12.15;;;;;;;24.97;100.00;98437.58;2280660;77;20998;-82
2022/08/14 11:33:35;;;;;;;24.63;12.00;;;;;;;25.04;100.00;98437.11;2286070;77;21000;-62
2022/08/14 11:36:36;;;;;;;26.82;12.50;;;;;;;24.93;100.00;98435.00;2283211;77;21568;-69
2022/08/14 11:39:39;;;;;;;25.72;12.60;;;;;;;25.12;100.00;98439.66;2283444;77;20981;-80
2022/08/14 11:42:41;;;;;;;26.95;13.78;;;;;;;25.48;100.00;98435.95;2281316;77;20958;-82
2022/08/14 11:45:42;;;;;;;24.57;12.80;;;;;;;25.75;100.00;98432.86;2283665;77;20980;-82
2022/08/14 11:48:44;;;;;;;26.75;14.45;;;;;;;25.87;100.00;98431.76;2286453;77;21051;-79
2022/08/14 11:51:45;;;;;;;26.77;14.35;;;;;;;25.93;100.00;98439.53;2282069;77;21009;-79
2022/08/14 11:54:47;;;;;;;27.13;14.33;;;;;;;26.06;100.00;98441.45;2284674;77;21502;-82
2022/08/14 11:57:48;;;;;;;26.75;14.73;;;;;;;26.34;100.00;98441.84;2283596;77;20984;-83
2022/08/14 12:00:49;;;;;;;28.73;15.48;;;;;;;26.53;100.00;98438.84;2284554;77;21530;-82
2022/08/14 12:03:51;;;;;;;27.07;14.95;;;;;;;26.88;100.00;98441.34;2282112;77;21024;-77
2022/08/14 12:06:52;;;;;;;30.62;15.85;;;;;;;27.06;100.00;98436.14;2286998;77;21411;-82
2022/08/14 12:09:54;;;;;;;31.37;15.15;;;;;;;27.05;100.00;98436.36;2277698;77;20985;-82
2022/08/14 12:12:56;;;;;;;29.20;16.05;;;;;;;27.09;100.00;98436.25;2241696;79;20992;-80
2022/08/14 12:15:57;;;;;;;28.52;16.70;;;;;;;27.24;100.00;98438.70;2243570;79;21538;-75
2022/08/14 12:19:00;;;;;;;;;;;;;;;27.62;100.00;98443.38;2243393;79;20981;-78
2022/08/14 12:22:01;;;;;;;31.52;16.60;;;;;;;28.08;100.00;98437.49;2244568;79;20098;-82
2022/08/14 12:25:03;;;;;;;;;;;;;;;28.26;100.00;98443.48;2243880;78;20992;-80
2022/08/14 12:28:07;;;;;;;29.45;15.85;;;;;;;28.30;100.00;98439.31;2288504;77;20111;-82
2022/08/14 12:31:08;;;;;;;29.07;16.12;;;;;;;28.30;100.00;98436.11;2260261;77;20993;-72
2022/08/14 12:34:10;;;;;;;30.65;16.93;;;;;;;28.31;100.00;98439.63;2244447;78;21096;-83
2022/08/14 12:37:11;;;;;;;28.02;16.48;;;;;;;28.17;100.00;98446.46;2238020;78;21047;-80
2022/08/14 12:40:13;;;;;;;31.97;16.95;;;;;;;27.85;100.00;98436.13;2246127;78;21454;-82
2022/08/14 12:43:16;;;;;;;28.62;16.60;;;;;;;27.82;100.00;98437.91;2244542;79;21031;-82
2022/08/14 12:46:18;;;;;;;28.60;16.00;;;;;;;27.74;100.00;98435.45;2228805;78;21024;-82
2022/08/14 12:49:22;;;;;;;29.45;16.75;;;;;;;27.75;100.00;98432.55;2284837;77;21506;-82
2022/08/14 12:52:23;;;;;;;28.38;15.93;;;;;;;27.83;100.00;98432.84;2255661;77;20965;-83
2022/08/14 12:55:25;;;;;;;28.00;15.98;;;;;;;27.95;100.00;98431.09;2286366;77;21588;-83
2022/08/14 12:58:27;;;;;;;29.57;16.90;;;;;;;28.45;100.00;98426.34;2282869;77;21080;-82
2022/08/14 13:01:29;;;;;;;28.05;15.98;;;;;;;28.98;100.00;98420.23;2279863;77;21546;-83
2022/08/14 13:04:32;;;;;;;31.20;15.58;;;;;;;29.30;100.00;98418.23;2248855;77;20973;-82
2022/08/14 13:07:34;;;;;;;;;;;;;;;29.85;100.00;98414.67;2282907;77;20988;-81
2022/08/14 13:10:35;;;;;;;26.97;15.38;;;;;;;30.58;100.00;98408.71;2286952;77;20084;-81
2022/08/14 13:13:38;;;;;;;;;;;;;;;31.14;100.00;98404.87;2289080;77;20996;-82
2022/08/14 13:16:40;;;;;;;26.00;14.65;;;;;;;31.63;100.00;98395.06;2256203;77;20523;-81
2022/08/14 13:19:44;;;;;;;26.25;14.58;;;;;;;32.08;100.00;98386.95;2282627;77;21198;-81
2022/08/14 13:22:44;;;;;;;25.17;12.63;;;;;;;32.49;100.00;98373.27;2250991;77;20985;-82
2022/08/14 13:25:46;;;;;;;25.77;14.00;;;;;;;32.73;100.00;98376.66;2277082;77;21495;-79
2022/08/14 13:28:49;;;;;;;25.85;13.48;;;;;;;32.83;100.00;98358.84;2244949;78;20975;-78
2022/08/14 13:31:52;;;;;;;24.90;12.85;;;;;;;32.37;100.00;98353.52;2240788;79;20997;-82
2022/08/14 13:34:53;;;;;;;24.02;12.82;;;;;;;31.64;100.00;98350.64;2236664;79;21477;-82
2022/08/14 13:37:55;;;;;;;29.27;13.53;;;;;;;31.44;100.00;98345.08;2241385;79;20984;-82
2022/08/14 13:40:56;;;;;;;27.40;13.93;;;;;;;31.82;100.00;98341.47;2282434;77;21008;-82
2022/08/14 13:43:58;;;;;;;25.17;14.23;;;;;;;32.06;100.00;98332.12;2273858;77;21031;-75
2022/08/14 13:46:59;;;;;;;24.15;12.43;;;;;;;32.47;100.00;98338.23;2282338;77;21099;-81
2022/08/14 13:50:01;;;;;;;24.90;12.37;;;;;;;32.50;100.00;98324.71;2286195;77;21499;-80
2022/08/14 13:53:03;;;;;;;24.10;12.37;;;;;;;31.98;100.00;98326.28;2280323;77;21051;-81
2022/08/14 13:56:04;;;;;;;25.70;12.50;;;;;;;31.26;100.00;98327.10;2282187;77;21597;-74
2022/08/14 13:59:06;;;;;;;31.70;18.90;;;;;;;31.14;100.00;98329.04;2284490;77;21000;-71
2022/08/14 14:02:07;;;;;;;28.05;15.58;;;;;;;31.61;100.00;98322.94;2283276;77;21558;-77
2022/08/14 14:05:11;;;;;;;24.07;12.30;;;;;;;31.98;100.00;98316.79;2239819;79;20997;-80
2022/08/14 14:08:12;;;;;;;26.77;14.68;;;;;;;31.85;100.00;98313.86;2243599;79;20977;-83
2022/08/14 14:11:13;;;;;;;24.30;12.85;;;;;;;32.03;100.00;98313.63;2237468;79;21538;-80
2022/08/14 14:14:15;;;;;;;24.40;12.28;;;;;;;32.05;100.00;98306.09;2241615;79;21056;-83